Time;durP1;ratioP1;P1;durP2;ratioP2;P2;SDS_P1;SDS_P2;PMS_P1;PMS_P2;Temp;Humidity;BMP_temperature;BMP_pressure;BME280_temperature;BME280_humidity;BME280_pressure;Samples;Min_cycle;Max_cycle;Signal;HPM_P1;HPM_P2
2023/07/22 00:00:56;;;;;;;6.53;5.30;;;;;;;10.39;100.00;100442.81;5032759;28;20052;-61
2023/07/22 00:03:23;;;;;;;6.90;5.43;;;;;;;10.43;100.00;100444.16;5031866;28;20064;-59
2023/07/22 00:06:08;;;;;;;8.32;5.32;;;;;;;10.42;100.00;100445.16;5032426;28;20136;-59
2023/07/22 00:08:36;;;;;;;8.75;5.40;;;;;;;10.39;100.00;100451.69;5031898;28;20092;-59
2023/07/22 00:11:06;;;;;;;13.75;6.35;;;;;;;10.44;100.00;100449.38;5032074;28;20080;-61
2023/07/22 00:13:34;;;;;;;7.82;5.82;;;;;;;10.48;100.00;100447.19;5032148;28;20053;-60
2023/07/22 00:16:07;;;;;;;13.63;7.55;;;;;;;10.52;100.00;100447.72;5031927;28;20045;-59
2023/07/22 00:18:34;;;;;;;9.73;5.95;;;;;;;10.58;100.00;100450.59;5031961;28;20558;-59
2023/07/22 00:21:02;;;;;;;8.30;6.03;;;;;;;10.59;100.00;100444.19;5031588;28;20045;-58
2023/07/22 00:23:29;;;;;;;8.13;5.55;;;;;;;10.60;100.00;100448.56;5031576;28;20508;-61
2023/07/22 00:25:57;;;;;;;9.10;5.28;;;;;;;10.57;100.00;100440.00;5032411;28;20041;-60
2023/07/22 00:28:23;;;;;;;7.22;5.68;;;;;;;10.61;100.00;100447.53;5031525;28;20050;-59
2023/07/22 00:30:50;;;;;;;10.25;5.72;;;;;;;10.60;100.00;100445.88;5025551;28;20049;-59
2023/07/22 00:33:17;;;;;;;6.68;5.32;;;;;;;10.55;100.00;100444.69;5012093;28;20494;-59
2023/07/22 00:35:50;;;;;;;13.18;5.95;;;;;;;10.50;100.00;100447.88;5012289;28;20525;-59
2023/07/22 00:38:16;;;;;;;8.93;5.90;;;;;;;10.61;100.00;100454.75;5011892;28;20046;-59
2023/07/22 00:40:44;;;;;;;7.32;5.88;;;;;;;10.59;100.00;100454.94;5012120;28;20471;-58
2023/07/22 00:43:12;;;;;;;7.05;5.25;;;;;;;10.60;100.00;100450.41;5012187;28;20065;-59
2023/07/22 00:45:39;;;;;;;11.52;5.43;;;;;;;10.60;100.00;100448.56;5012145;28;20501;-59
2023/07/22 00:48:07;;;;;;;8.52;6.32;;;;;;;10.70;100.00;100451.06;5011981;28;20108;-59
2023/07/22 00:50:35;;;;;;;8.73;5.57;;;;;;;10.66;100.00;100449.75;5011938;28;20073;-59
2023/07/22 00:53:01;;;;;;;10.35;6.13;;;;;;;10.66;100.00;100449.75;5012457;28;20051;-60
2023/07/22 00:55:28;;;;;;;7.50;5.50;;;;;;;10.70;100.00;100445.72;5012125;28;20506;-59
2023/07/22 00:57:55;;;;;;;10.68;5.50;;;;;;;10.68;100.00;100458.44;5011796;28;20057;-60
2023/07/22 01:00:22;;;;;;;10.68;5.90;;;;;;;10.75;100.00;100462.13;5011911;28;20124;-59
2023/07/22 01:02:49;;;;;;;7.68;5.20;;;;;;;10.77;100.00;100460.13;5011786;28;20057;-59
2023/07/22 01:09:07;;;;;;;8.45;5.70;;;;;;;10.70;100.00;100459.13;5010027;28;20041;-59
2023/07/22 01:11:33;;;;;;;7.63;5.38;;;;;;;10.66;100.00;100453.25;5010843;28;20472;-59
2023/07/22 01:14:00;;;;;;;8.35;5.88;;;;;;;10.69;100.00;100449.41;5010240;28;20054;-59
2023/07/22 01:16:28;;;;;;;8.00;6.13;;;;;;;10.68;100.00;100453.91;5009629;28;20041;-59
2023/07/22 01:18:55;;;;;;;7.88;5.75;;;;;;;10.71;100.00;100455.44;5010018;28;20061;-59
2023/07/22 01:21:23;;;;;;;7.28;5.63;;;;;;;10.70;100.00;100451.06;5009666;28;20096;-59
2023/07/22 01:23:52;;;;;;;9.32;5.97;;;;;;;10.76;100.00;100450.41;5009469;28;20071;-60
2023/07/22 01:26:19;;;;;;;7.03;6.32;;;;;;;10.75;100.00;100459.44;5009895;28;20062;-60
2023/07/22 01:28:46;;;;;;;10.18;6.38;;;;;;;10.83;100.00;100464.00;5009980;28;20065;-61
2023/07/22 01:31:14;;;;;;;12.63;6.65;;;;;;;10.79;100.00;100463.50;5018999;28;20060;-60
2023/07/22 01:33:41;;;;;;;8.88;6.80;;;;;;;10.79;100.00;100463.50;5029799;28;20041;-60
2023/07/22 01:36:08;;;;;;;8.75;7.05;;;;;;;10.82;100.00;100455.09;5027993;28;20045;-59
2023/07/22 01:38:35;;;;;;;7.18;6.40;;;;;;;10.85;100.00;100454.75;5029132;28;20041;-59
2023/07/22 01:41:02;;;;;;;16.02;7.13;;;;;;;10.79;100.00;100455.44;5028651;28;20057;-59
2023/07/22 01:43:29;;;;;;;9.13;6.55;;;;;;;10.80;100.00;100451.75;5029275;28;20045;-60
2023/07/22 01:45:55;;;;;;;10.30;6.95;;;;;;;10.84;100.00;100450.41;5029074;28;20165;-60
2023/07/22 01:48:23;;;;;;;10.90;6.75;;;;;;;10.80;100.00;100446.38;5029331;28;20493;-59
2023/07/22 01:50:50;;;;;;;10.27;6.60;;;;;;;10.89;100.00;100458.75;5028988;28;20053;-61
2023/07/22 01:53:16;;;;;;;6.85;6.05;;;;;;;10.78;100.00;100464.47;5029015;28;20559;-60
2023/07/22 01:55:44;;;;;;;8.98;6.80;;;;;;;10.73;100.00;100472.22;5029348;28;20045;-60
2023/07/22 01:58:10;;;;;;;9.45;6.53;;;;;;;10.70;100.00;100472.53;5029530;28;20045;-59
2023/07/22 02:00:37;;;;;;;9.23;6.57;;;;;;;10.63;100.00;100477.72;5012137;28;20429;-59
2023/07/22 02:03:04;;;;;;;10.45;6.20;;;;;;;10.58;100.00;100485.44;5029958;28;20045;-60
2023/07/22 02:05:30;;;;;;;12.20;6.75;;;;;;;10.61;100.00;100490.47;5028270;28;20116;-60
2023/07/22 02:07:57;;;;;;;8.23;5.90;;;;;;;10.61;100.00;100482.41;5028179;28;20053;-59
2023/07/22 02:10:24;;;;;;;7.22;6.22;;;;;;;10.67;100.00;100479.06;5028402;28;20456;-59
2023/07/22 02:12:50;;;;;;;9.82;6.07;;;;;;;10.68;100.00;100482.59;5028128;28;20501;-59
2023/07/22 02:15:17;;;;;;;8.52;6.00;;;;;;;10.66;100.00;100489.97;5028654;28;20049;-59
2023/07/22 02:17:43;;;;;;;6.78;6.07;;;;;;;10.66;100.00;100493.50;5028554;28;20099;-59
2023/07/22 02:20:10;;;;;;;9.13;5.95;;;;;;;10.64;100.00;100497.34;5028971;28;20124;-61
2023/07/22 02:22:37;;;;;;;15.77;6.72;;;;;;;10.59;100.00;100497.00;5028082;28;20485;-59
2023/07/22 02:25:04;;;;;;;7.07;5.68;;;;;;;10.58;100.00;100498.00;5027488;28;20553;-60
2023/07/22 02:27:30;;;;;;;15.32;6.47;;;;;;;10.58;100.00;100503.38;5028317;28;20041;-60
2023/07/22 02:29:57;;;;;;;11.45;6.70;;;;;;;10.55;100.00;100495.66;5028938;28;20516;-60
2023/07/22 02:32:23;;;;;;;9.95;6.53;;;;;;;10.48;100.00;100509.72;5009651;28;20069;-59
2023/07/22 02:34:50;;;;;;;7.38;5.97;;;;;;;10.46;100.00;100513.56;5009184;28;20049;-60
2023/07/22 02:37:16;;;;;;;7.82;7.03;;;;;;;10.43;100.00;100509.34;5007904;28;20148;-60
2023/07/22 02:39:44;;;;;;;13.18;6.50;;;;;;;10.43;100.00;100512.03;5008226;28;20100;-60
2023/07/22 02:42:11;;;;;;;15.35;6.80;;;;;;;10.34;100.00;100507.66;5009782;28;20046;-59
2023/07/22 02:44:37;;;;;;;7.97;6.80;;;;;;;10.41;100.00;100516.72;5009220;28;20046;-60
2023/07/22 02:47:04;;;;;;;7.78;6.35;;;;;;;10.36;100.00;100512.84;5008654;28;20125;-59
2023/07/22 02:49:30;;;;;;;10.98;6.65;;;;;;;10.31;100.00;100518.72;5008743;28;20433;-60
2023/07/22 02:51:57;;;;;;;10.48;6.78;;;;;;;10.31;100.00;100524.09;5008323;28;20045;-61
2023/07/22 02:54:23;;;;;;;11.23;6.28;;;;;;;10.28;100.00;100532.44;5007562;28;20148;-60
2023/07/22 02:56:50;;;;;;;10.45;6.68;;;;;;;10.28;100.00;100529.78;5008484;28;20077;-59
2023/07/22 02:59:17;;;;;;;10.52;6.80;;;;;;;10.25;100.00;100533.59;5008553;28;20552;-59
2023/07/22 03:01:44;;;;;;;10.65;7.10;;;;;;;10.25;100.00;100536.28;5008245;28;20042;-59
2023/07/22 03:04:12;;;;;;;14.32;7.05;;;;;;;10.24;100.00;100534.63;5009128;28;20498;-61
2023/07/22 03:06:40;;;;;;;10.75;6.50;;;;;;;10.20;100.00;100535.09;5008284;28;20104;-60
2023/07/22 03:09:11;;;;;;;9.43;7.35;;;;;;;10.18;100.00;100537.09;5008259;28;20462;-59
2023/07/22 03:11:39;;;;;;;13.75;6.85;;;;;;;10.18;100.00;100529.91;5008984;28;20116;-60
2023/07/22 03:14:05;;;;;;;14.27;7.10;;;;;;;10.16;100.00;100539.09;5008825;28;20062;-60
2023/07/22 03:16:32;;;;;;;12.63;6.90;;;;;;;10.16;100.00;100533.72;5011475;28;20605;-60
2023/07/22 03:18:58;;;;;;;10.18;6.78;;;;;;;10.17;100.00;100533.59;5028257;28;20046;-60
2023/07/22 03:21:25;;;;;;;13.88;7.20;;;;;;;10.12;100.00;100538.59;5027433;28;20564;-59
2023/07/22 03:23:51;;;;;;;15.40;7.00;;;;;;;10.11;100.00;100542.28;5026874;28;20045;-59
2023/07/22 03:26:18;;;;;;;9.57;6.45;;;;;;;10.13;100.00;100539.41;5028910;28;20552;-59
2023/07/22 03:28:46;;;;;;;10.77;6.85;;;;;;;10.16;100.00;100542.59;5013485;28;20153;-60
2023/07/22 03:31:13;;;;;;;6.95;6.28;;;;;;;10.13;100.00;100545.66;5031120;28;20109;-61
2023/07/22 03:33:39;;;;;;;13.35;6.05;;;;;;;10.14;100.00;100551.84;5013934;28;20050;-60
2023/07/22 03:36:06;;;;;;;9.85;6.68;;;;;;;10.17;100.00;100556.88;5030616;28;20046;-60
2023/07/22 03:38:33;;;;;;;7.07;6.18;;;;;;;10.18;100.00;100559.38;5031773;28;20100;-60
2023/07/22 03:41:00;;;;;;;8.48;6.13;;;;;;;10.16;100.00;100561.38;5030575;28;20053;-60
2023/07/22 03:43:27;;;;;;;13.63;6.70;;;;;;;10.15;100.00;100558.88;5030495;28;20049;-62
2023/07/22 03:45:54;;;;;;;9.25;5.50;;;;;;;10.15;100.00;100566.91;5031377;28;20494;-60
2023/07/22 03:48:20;;;;;;;10.02;5.55;;;;;;;10.18;100.00;100564.75;5029493;28;20045;-59
2023/07/22 03:50:47;;;;;;;7.90;5.22;;;;;;;10.25;100.00;100565.78;5031576;28;20045;-59
2023/07/22 03:53:16;;;;;;;8.80;4.65;;;;;;;10.20;100.00;100572.63;5028898;28;20460;-60
2023/07/22 03:55:43;;;;;;;11.88;4.63;;;;;;;10.20;100.00;100569.94;5029997;28;20164;-61
2023/07/22 03:58:09;;;;;;;8.15;5.20;;;;;;;10.22;100.00;100575.97;5029825;28;20045;-59
2023/07/22 04:00:38;;;;;;;5.88;4.32;;;;;;;10.23;100.00;100573.13;5029273;28;20073;-59
2023/07/22 04:03:04;;;;;;;5.10;3.83;;;;;;;10.24;100.00;100577.50;5026395;28;20096;-59
2023/07/22 04:05:31;;;;;;;10.52;4.45;;;;;;;10.31;100.00;100572.34;5029937;28;20045;-60
2023/07/22 04:07:58;;;;;;;7.45;3.97;;;;;;;10.22;100.00;100582.19;5012806;28;20073;-60
2023/07/22 04:10:24;;;;;;;5.60;4.20;;;;;;;10.25;100.00;100578.34;5031729;28;20451;-58
2023/07/22 04:12:51;;;;;;;6.88;4.38;;;;;;;10.25;100.00;100581.03;5030607;28;20054;-60
2023/07/22 04:15:17;;;;;;;9.32;4.60;;;;;;;10.23;100.00;100585.69;5028025;28;20049;-59
2023/07/22 04:17:46;;;;;;;10.70;5.03;;;;;;;10.18;100.00;100588.03;5030392;28;20095;-60
2023/07/22 04:20:13;;;;;;;10.23;6.30;;;;;;;10.21;100.00;100590.41;5031749;28;20049;-61
2023/07/22 04:22:41;;;;;;;10.30;5.70;;;;;;;10.33;100.00;100591.78;5030399;28;20052;-60
2023/07/22 04:25:08;;;;;;;7.07;4.13;;;;;;;10.31;100.00;100601.00;5030574;28;20424;-59
2023/07/22 04:27:35;;;;;;;7.95;3.47;;;;;;;10.31;100.00;100601.00;5030350;28;20440;-59
2023/07/22 04:30:02;;;;;;;5.47;3.97;;;;;;;10.34;100.00;100597.97;5028836;28;20073;-59
2023/07/22 04:32:29;;;;;;;5.40;4.00;;;;;;;10.31;100.00;100596.47;5011491;28;20053;-59
2023/07/22 04:34:56;;;;;;;6.05;3.92;;;;;;;10.34;100.00;100596.16;5007779;28;20456;-59
2023/07/22 04:37:22;;;;;;;7.22;4.25;;;;;;;10.36;100.00;100596.81;5010888;28;20069;-60
2023/07/22 04:39:50;;;;;;;8.07;4.07;;;;;;;10.41;100.00;100597.19;5010045;28;20111;-60
2023/07/22 04:42:16;;;;;;;10.05;4.53;;;;;;;10.47;100.00;100593.84;5028956;28;20095;-60
2023/07/22 04:44:44;;;;;;;9.32;4.45;;;;;;;10.50;100.00;100604.28;5033794;28;20068;-58
2023/07/22 04:47:10;;;;;;;7.35;4.20;;;;;;;10.60;100.00;100600.63;5038366;28;20052;-57
2023/07/22 04:49:37;;;;;;;9.02;4.60;;;;;;;10.62;100.00;100604.00;5038391;28;20064;-59
2023/07/22 04:52:05;;;;;;;7.28;4.35;;;;;;;10.61;100.00;100610.34;5038389;28;20106;-58
2023/07/22 04:54:31;;;;;;;10.57;5.53;;;;;;;10.64;100.00;100610.03;5038419;28;20463;-60
2023/07/22 04:56:59;;;;;;;8.77;5.25;;;;;;;10.71;100.00;100609.19;5035357;28;20053;-58
2023/07/22 04:59:26;;;;;;;8.00;5.07;;;;;;;10.76;100.00;100607.88;5035968;28;20056;-57
2023/07/22 05:01:52;;;;;;;23.33;5.63;;;;;;;10.78;100.00;100611.22;5037464;28;20456;-57
2023/07/22 05:04:19;;;;;;;8.85;5.85;;;;;;;10.80;100.00;100614.59;5037966;28;20045;-58
2023/07/22 05:06:45;;;;;;;11.82;5.70;;;;;;;10.88;100.00;100617.28;5035673;28;20052;-59
2023/07/22 05:09:12;;;;;;;10.13;6.05;;;;;;;10.96;100.00;100628.03;5036191;28;20100;-58
2023/07/22 05:11:38;;;;;;;10.43;5.55;;;;;;;10.99;100.00;100631.22;5036510;28;20091;-58
2023/07/22 05:14:05;;;;;;;7.40;5.78;;;;;;;10.98;100.00;100632.25;5037079;28;20080;-58
2023/07/22 05:16:31;;;;;;;11.50;6.32;;;;;;;10.92;100.00;100624.84;5037041;28;20563;-59
2023/07/22 05:18:58;;;;;;;9.85;6.47;;;;;;;10.99;100.00;100633.06;5037647;28;20057;-58
2023/07/22 05:21:24;;;;;;;11.73;6.90;;;;;;;11.08;100.00;100632.09;5034952;28;20068;-57
2023/07/22 05:23:51;;;;;;;11.43;6.75;;;;;;;11.08;100.00;100636.63;5036493;28;20139;-57
2023/07/22 05:26:18;;;;;;;9.48;6.40;;;;;;;11.07;100.00;100640.31;5037247;28;20073;-58
2023/07/22 05:28:44;;;;;;;10.40;7.00;;;;;;;11.08;100.00;100642.84;5037116;28;20045;-62
2023/07/22 05:31:11;;;;;;;11.60;7.68;;;;;;;11.14;100.00;100644.03;5035579;28;20042;-58
2023/07/22 05:33:38;;;;;;;12.45;6.97;;;;;;;11.15;100.00;100640.31;5036187;28;20561;-58
2023/07/22 05:36:05;;;;;;;14.43;7.43;;;;;;;11.24;100.00;100647.41;5031777;28;20604;-58
2023/07/22 05:38:31;;;;;;;10.38;6.88;;;;;;;11.30;100.00;100652.06;5033808;28;20049;-59
2023/07/22 05:40:58;;;;;;;16.48;7.50;;;;;;;11.38;100.00;100654.78;5036253;28;20049;-58
2023/07/22 05:43:24;;;;;;;11.50;6.97;;;;;;;11.49;100.00;100660.84;5036259;28;20041;-58
2023/07/22 05:45:51;;;;;;;12.45;7.78;;;;;;;11.56;100.00;100662.69;5035833;28;20515;-58
2023/07/22 05:48:17;;;;;;;20.75;8.55;;;;;;;11.57;100.00;100668.88;5032978;28;20049;-59
2023/07/22 05:50:47;;;;;;;13.05;7.70;;;;;;;11.53;100.00;100667.53;5034832;28;20057;-57
2023/07/22 05:53:14;;;;;;;22.95;8.68;;;;;;;11.51;100.00;100670.38;5036524;28;20041;-57
2023/07/22 05:55:40;;;;;;;15.93;8.80;;;;;;;11.58;100.00;100670.56;5035470;28;20379;-58
2023/07/22 05:58:15;;;;;;;13.43;7.50;;;;;;;11.69;100.00;100670.28;5034747;28;20099;-58
2023/07/22 06:00:41;;;;;;;14.57;7.88;;;;;;;11.62;100.00;100677.25;5035865;28;20061;-58
2023/07/22 06:03:08;;;;;;;12.45;7.55;;;;;;;11.67;100.00;100675.81;5033974;28;20053;-58
2023/07/22 06:05:35;;;;;;;15.45;7.97;;;;;;;11.78;100.00;100676.47;5035503;28;20107;-58
2023/07/22 06:08:05;;;;;;;15.27;8.75;;;;;;;11.82;100.00;100673.25;5035721;28;20552;-58
2023/07/22 06:10:32;;;;;;;14.10;8.27;;;;;;;11.87;100.00;100681.66;5029191;28;20099;-58
2023/07/22 06:13:01;;;;;;;12.30;7.85;;;;;;;11.78;100.00;100684.53;5030459;28;20077;-57
2023/07/22 06:15:27;;;;;;;12.13;8.13;;;;;;;11.76;100.00;100686.53;5033476;28;20045;-57
2023/07/22 06:17:54;;;;;;;13.20;7.97;;;;;;;11.82;100.00;100694.75;5031808;28;20049;-58
2023/07/22 06:20:20;;;;;;;14.65;7.75;;;;;;;11.78;100.00;100688.06;5035078;28;20077;-58
2023/07/22 06:22:47;;;;;;;16.42;7.75;;;;;;;11.92;100.00;100695.44;5034455;28;20099;-58
2023/07/22 06:25:13;;;;;;;14.18;6.85;;;;;;;11.96;100.00;100695.09;5035102;28;20053;-58
2023/07/22 06:27:41;;;;;;;11.48;6.90;;;;;;;12.00;100.00;100696.44;5032131;28;20072;-57
2023/07/22 06:30:08;;;;;;;15.40;7.03;;;;;;;11.98;100.00;100704.69;5028492;28;20133;-58
2023/07/22 06:32:37;;;;;;;11.73;7.18;;;;;;;12.09;100.00;100695.41;5034749;28;20638;-58
2023/07/22 06:35:04;;;;;;;18.55;11.57;;;;;;;12.14;100.00;100709.16;5034375;28;20053;-59
2023/07/22 06:37:34;;;;;;;12.77;6.85;;;;;;;12.20;100.00;100708.50;5032354;28;20041;-59
2023/07/22 06:40:01;;;;;;;11.32;6.00;;;;;;;12.34;100.00;100705.09;5032224;28;20053;-58
2023/07/22 06:42:28;;;;;;;17.15;6.78;;;;;;;12.40;100.00;100709.78;5031806;28;20068;-60
2023/07/22 06:44:54;;;;;;;12.10;6.07;;;;;;;12.54;100.00;100705.53;5032952;28;20057;-59
2023/07/22 06:47:21;;;;;;;17.58;5.80;;;;;;;12.52;100.00;100706.72;5032409;28;20041;-59
2023/07/22 06:49:48;;;;;;;13.32;6.47;;;;;;;12.68;100.00;100706.69;5033986;28;20508;-62
2023/07/22 06:52:14;;;;;;;11.45;5.53;;;;;;;12.94;100.00;100710.94;5034363;28;20048;-59
2023/07/22 06:54:41;;;;;;;10.90;5.38;;;;;;;13.05;100.00;100719.50;5033780;28;20052;-59
2023/07/22 06:57:08;;;;;;;11.70;4.97;;;;;;;13.00;100.00;100711.09;5029084;28;20076;-59
2023/07/22 06:59:36;;;;;;;11.75;5.03;;;;;;;13.16;100.00;100720.13;5029178;28;20494;-59
2023/07/22 07:02:07;;;;;;;10.98;4.95;;;;;;;13.30;100.00;100722.88;5031738;28;20115;-57
2023/07/22 07:04:34;;;;;;;11.88;4.57;;;;;;;13.37;100.00;100722.16;5033156;28;20049;-58
2023/07/22 07:07:02;;;;;;;8.77;4.15;;;;;;;13.50;100.00;100720.56;5032911;28;20045;-59
2023/07/22 07:09:29;;;;;;;8.50;4.22;;;;;;;13.55;100.00;100714.63;5034056;28;20045;-57
2023/07/22 07:11:56;;;;;;;11.38;4.95;;;;;;;13.69;100.00;100713.00;5036272;28;20049;-59
2023/07/22 07:14:24;;;;;;;12.98;4.28;;;;;;;13.67;100.00;100720.44;5034890;28;20493;-59
2023/07/22 07:16:51;;;;;;;15.27;5.55;;;;;;;13.96;100.00;100722.41;5032266;28;20425;-59
2023/07/22 07:19:18;;;;;;;8.55;4.38;;;;;;;13.94;100.00;100716.34;5036833;28;20041;-60
2023/07/22 07:21:44;;;;;;;14.98;5.00;;;;;;;14.07;100.00;100721.97;5035741;28;20099;-60
2023/07/22 07:24:11;;;;;;;10.20;4.30;;;;;;;14.06;100.00;100726.53;5035330;28;20486;-58
2023/07/22 07:26:37;;;;;;;13.73;4.72;;;;;;;14.32;100.00;100727.13;5036265;28;20053;-59
2023/07/22 07:29:05;;;;;;;10.73;4.45;;;;;;;14.36;100.00;100726.59;5035588;28;20050;-59
2023/07/22 07:31:31;;;;;;;12.15;4.88;;;;;;;14.44;100.00;100731.03;5023082;28;20045;-61
2023/07/22 07:33:59;;;;;;;13.20;5.25;;;;;;;14.78;100.00;100738.63;5013077;28;20493;-60
2023/07/22 07:36:25;;;;;;;11.95;4.38;;;;;;;14.55;100.00;100733.28;5012491;28;20383;-58
2023/07/22 07:38:52;;;;;;;8.63;4.70;;;;;;;14.46;100.00;100729.84;5014973;28;20410;-60
2023/07/22 07:41:19;;;;;;;8.77;4.72;;;;;;;14.52;100.00;100739.03;5015641;28;20049;-60
2023/07/22 07:43:46;;;;;;;10.02;4.63;;;;;;;15.10;100.00;100741.94;5010930;28;20046;-60
2023/07/22 07:46:21;;;;;;;9.30;4.93;;;;;;;15.17;100.00;100749.06;5011443;28;20050;-60
2023/07/22 07:48:51;;;;;;;8.00;4.53;;;;;;;15.36;100.00;100750.34;5014450;28;20073;-60
2023/07/22 07:51:19;;;;;;;9.10;4.30;;;;;;;15.42;100.00;100749.56;5014943;28;20065;-58
2023/07/22 07:53:46;;;;;;;8.43;4.32;;;;;;;15.47;100.00;100757.13;5013981;28;20053;-58
2023/07/22 07:56:15;;;;;;;7.97;4.85;;;;;;;15.18;100.00;100756.16;5011057;28;20123;-59
2023/07/22 07:58:43;;;;;;;10.18;4.88;;;;;;;15.33;100.00;100760.69;5014723;28;20125;-59
2023/07/22 08:01:11;;;;;;;10.35;4.70;;;;;;;15.38;100.00;100760.97;5014247;28;20050;-60
2023/07/22 08:03:39;;;;;;;10.93;4.28;;;;;;;15.99;100.00;100765.97;5014709;28;20045;-60
2023/07/22 08:06:06;;;;;;;5.97;4.20;;;;;;;16.52;100.00;100763.69;5014494;28;20104;-59
2023/07/22 08:08:34;;;;;;;14.40;4.80;;;;;;;17.34;100.00;100762.88;5014502;28;20046;-61
2023/07/22 08:11:03;;;;;;;15.52;4.93;;;;;;;17.19;100.00;100764.84;5031659;28;20052;-60
2023/07/22 08:13:31;;;;;;;8.25;3.80;;;;;;;16.99;100.00;100771.06;5033776;28;20099;-60
2023/07/22 08:15:58;;;;;;;6.75;4.68;;;;;;;16.51;100.00;100779.09;5033472;28;20417;-60
2023/07/22 08:18:25;;;;;;;8.80;4.07;;;;;;;16.24;100.00;100771.78;5033497;28;20128;-59
2023/07/22 08:20:55;;;;;;;6.95;4.57;;;;;;;16.29;100.00;100770.16;5033117;28;20124;-59
2023/07/22 08:23:25;;;;;;;9.50;4.17;;;;;;;16.09;100.00;100775.44;5033801;28;20579;-59
2023/07/22 08:25:52;;;;;;;7.70;4.00;;;;;;;16.24;100.00;100772.63;5032880;28;20046;-59
2023/07/22 08:28:18;;;;;;;7.35;3.90;;;;;;;16.40;100.00;100776.91;5032287;28;20489;-59
2023/07/22 08:30:45;;;;;;;11.52;4.60;;;;;;;16.29;100.00;100772.03;5031847;28;20465;-59
2023/07/22 08:33:12;;;;;;;7.68;4.35;;;;;;;16.31;100.00;100778.94;5030372;28;20057;-59
2023/07/22 08:35:42;;;;;;;8.23;4.70;;;;;;;16.40;100.00;100783.19;5033172;28;20417;-60
2023/07/22 08:38:09;;;;;;;10.90;4.97;;;;;;;16.63;100.00;100780.22;5032228;28;20080;-59
2023/07/22 08:40:37;;;;;;;7.75;4.18;;;;;;;16.96;100.00;100781.47;5032854;28;20080;-60
2023/07/22 08:43:05;;;;;;;12.77;5.30;;;;;;;17.44;100.00;100779.59;5033106;28;20099;-59
2023/07/22 08:45:36;;;;;;;6.90;4.53;;;;;;;17.50;98.72;100778.75;5033026;28;20390;-60
2023/07/22 08:48:07;;;;;;;10.30;4.57;;;;;;;17.67;98.09;100784.63;5033595;28;20049;-60
2023/07/22 08:50:44;;;;;;;8.48;4.40;;;;;;;17.83;93.38;100781.56;5032993;28;20049;-60
2023/07/22 08:53:12;;;;;;;8.98;4.57;;;;;;;17.73;96.71;100786.53;5032784;28;20041;-59
2023/07/22 08:55:42;;;;;;;7.65;4.55;;;;;;;17.60;99.36;100795.47;5032801;28;20041;-59
2023/07/22 08:58:09;;;;;;;7.90;4.88;;;;;;;17.72;99.02;100790.31;5033185;28;20050;-60
2023/07/22 09:00:37;;;;;;;9.63;4.60;;;;;;;17.67;100.00;100798.22;5032152;28;20190;-60
2023/07/22 09:03:05;;;;;;;7.03;4.68;;;;;;;17.73;97.95;100796.56;5032342;28;20482;-60
2023/07/22 09:05:33;;;;;;;9.20;4.25;;;;;;;18.31;91.76;100789.53;5032718;28;20052;-63
2023/07/22 09:08:04;;;;;;;7.63;4.20;;;;;;;18.34;87.57;100793.69;5033198;28;20041;-60
2023/07/22 09:10:31;;;;;;;8.32;4.40;;;;;;;18.25;87.69;100794.97;5032210;28;20038;-60
2023/07/22 09:13:00;;;;;;;8.90;3.92;;;;;;;18.40;84.73;100787.44;5032747;28;20048;-59
2023/07/22 09:15:27;;;;;;;7.03;4.72;;;;;;;18.87;80.59;100790.91;5031389;28;20042;-60
2023/07/22 09:17:54;;;;;;;12.25;4.65;;;;;;;18.78;79.38;100792.16;5031390;28;20045;-61
2023/07/22 09:20:21;;;;;;;10.38;4.63;;;;;;;18.74;78.58;100785.50;5032424;28;20049;-59
2023/07/22 09:22:49;;;;;;;6.90;4.40;;;;;;;19.30;76.67;100795.78;5030174;28;20057;-59
2023/07/22 09:25:33;;;;;;;8.95;3.92;;;;;;;19.52;71.04;100781.84;5030601;28;20156;-60
2023/07/22 09:28:00;;;;;;;7.32;3.80;;;;;;;19.77;65.88;100785.53;5031738;28;20621;-59
2023/07/22 09:30:45;;;;;;;6.35;3.95;;;;;;;20.33;63.64;100779.22;5031730;28;20513;-59
2023/07/22 09:33:22;;;;;;;5.30;3.63;;;;;;;20.94;58.58;100777.56;5032079;28;20561;-58
2023/07/22 09:35:54;;;;;;;6.40;3.17;;;;;;;21.29;55.88;100782.41;5032581;28;20140;-60
2023/07/22 09:38:25;;;;;;;7.13;3.70;;;;;;;21.22;56.28;100779.78;5031358;28;20049;-60
2023/07/22 09:40:52;;;;;;;5.80;3.80;;;;;;;21.43;55.07;100777.63;5030790;28;20049;-58
2023/07/22 09:43:19;;;;;;;6.65;3.75;;;;;;;21.26;54.81;100789.16;5032162;28;20041;-58
2023/07/22 09:45:48;;;;;;;5.35;3.50;;;;;;;20.97;54.18;100777.09;5031884;28;20053;-59
2023/07/22 09:48:16;;;;;;;6.93;3.10;;;;;;;21.83;50.36;100769.69;5032070;28;20489;-59
2023/07/22 09:50:43;;;;;;;6.05;3.50;;;;;;;21.31;51.22;100774.81;5032614;28;20067;-59
2023/07/22 09:53:15;;;;;;;5.45;3.35;;;;;;;20.91;52.12;100769.84;5027941;28;20045;-60
2023/07/22 09:55:42;;;;;;;7.30;3.40;;;;;;;21.41;51.62;100785.19;5032348;28;20049;-60
2023/07/22 09:58:09;;;;;;;4.05;2.92;;;;;;;21.40;50.57;100778.91;5014242;28;20042;-60
2023/07/22 10:00:36;;;;;;;8.38;3.30;;;;;;;21.43;49.75;100786.63;5031656;28;20095;-60
2023/07/22 10:03:08;;;;;;;8.50;3.75;;;;;;;21.69;49.37;100785.41;5027140;28;20416;-59
2023/07/22 10:05:38;;;;;;;5.88;3.83;;;;;;;22.56;47.18;100793.06;5031522;28;20045;-60
2023/07/22 10:08:34;;;;;;;5.60;3.58;;;;;;;21.73;47.82;100789.34;5030698;28;20065;-59
2023/07/22 10:11:07;;;;;;;8.90;3.85;;;;;;;21.85;48.53;100792.97;5031856;28;20050;-60
2023/07/22 10:13:35;;;;;;;8.00;3.33;;;;;;;21.93;47.43;100785.50;5031382;28;20547;-61
2023/07/22 10:16:02;;;;;;;8.68;3.40;;;;;;;22.00;47.39;100786.22;5029979;28;20452;-60
2023/07/22 10:18:31;;;;;;;4.00;3.33;;;;;;;22.82;46.15;100782.72;5031345;28;20111;-60
2023/07/22 10:20:59;;;;;;;5.22;3.30;;;;;;;24.18;43.70;100780.97;5030949;28;20520;-60
2023/07/22 10:23:26;;;;;;;7.88;3.60;;;;;;;24.02;43.22;100786.44;5029587;28;20083;-59
2023/07/22 10:25:54;;;;;;;8.82;3.42;;;;;;;25.09;41.20;100782.59;5028482;28;20088;-59
2023/07/22 10:28:21;;;;;;;5.82;3.35;;;;;;;25.19;39.05;100774.47;5029873;28;20572;-59
2023/07/22 10:30:51;;;;;;;8.60;2.88;;;;;;;25.72;37.97;100772.88;5028969;28;20053;-59
2023/07/22 10:33:18;;;;;;;5.53;3.05;;;;;;;26.01;38.18;100781.66;5031069;28;20124;-59
2023/07/22 10:36:03;;;;;;;5.25;3.45;;;;;;;26.20;36.82;100786.78;5029266;28;20045;-58
2023/07/22 10:38:30;;;;;;;5.20;3.45;;;;;;;25.89;37.15;100774.66;5030573;28;20057;-61
2023/07/22 10:40:56;;;;;;;7.55;3.53;;;;;;;26.31;36.65;100783.03;5028826;28;20049;-61
2023/07/22 10:43:31;;;;;;;3.17;2.72;;;;;;;25.07;38.05;100782.03;5029388;28;20041;-60
2023/07/22 10:46:05;;;;;;;6.97;3.70;;;;;;;24.22;39.45;100770.34;5028966;28;20057;-60
2023/07/22 10:48:37;;;;;;;7.20;3.95;;;;;;;23.85;40.86;100770.00;5025058;28;20076;-61
2023/07/22 10:51:10;;;;;;;6.47;3.80;;;;;;;24.14;40.28;100770.75;5012296;28;20049;-60
2023/07/22 10:53:50;;;;;;;6.40;3.15;;;;;;;22.71;42.13;100763.34;5001813;28;20406;-59
2023/07/22 10:56:20;;;;;;;5.50;3.38;;;;;;;21.72;43.32;100774.03;5019137;28;20362;-58
2023/07/22 10:58:46;;;;;;;7.72;3.70;;;;;;;21.28;44.98;100778.00;5030594;28;20079;-60
2023/07/22 11:01:28;;;;;;;5.50;3.92;;;;;;;20.39;46.71;100769.31;5029612;28;20053;-59
2023/07/22 11:04:14;;;;;;;4.15;3.63;;;;;;;20.90;46.73;100770.88;5029791;28;20045;-59
2023/07/22 11:06:43;;;;;;;5.18;3.45;;;;;;;21.36;45.93;100772.25;5030384;28;20041;-59
2023/07/22 11:09:34;;;;;;;6.50;4.75;;;;;;;21.92;44.54;100768.28;5030125;28;20474;-59
2023/07/22 11:12:12;;;;;;;8.65;4.57;;;;;;;21.41;45.70;100777.00;5028794;28;20041;-59
2023/07/22 11:14:48;;;;;;;6.53;4.25;;;;;;;20.36;47.06;100767.88;5030622;28;20125;-59
2023/07/22 11:17:17;;;;;;;5.28;3.60;;;;;;;19.96;48.98;100765.47;5030190;28;20050;-62
2023/07/22 11:19:45;;;;;;;5.95;3.90;;;;;;;20.40;49.18;100773.72;5030372;28;20099;-60
2023/07/22 11:22:12;;;;;;;8.48;3.92;;;;;;;20.12;49.18;100763.25;5022673;28;20041;-60
2023/07/22 11:24:38;;;;;;;7.68;4.63;;;;;;;20.49;49.36;100761.50;5029726;28;20041;-60